Portada
METAR-TAF:

METAR-TAF

Aeroports :

Penn Valley Airport

Selinsgrove, Pennsilvània, Estats Units d'Amèrica

latitud: 40-49-09N, longitud: 076-51-58W, altitud: 137 m

Observació

L'informe es va fer fa 1 hora i 4 minuts, a les 17:53 UTC
Vent 6 kt del Sud/Sud-Est
Temperatura 30°C
Humitat 62%
Pressió 1018 hPa
Visibilitat: 16.1 km
Escasses núvols a una alçada de 4600 ft

METAR: KSEG 161753Z AUTO 16006KT 10SM FEW046 30/22 A3005 RMK AO2 SLP171 T03000217 10306 20200 58016

Hora: 14:57 (18:57 UTC)


TAF: manca

Observacions i pronòstics meteorològics de més de 4000 aeroports (METAR i TAF).

Les estacions disponibles són els punts grocs i vermells al mapa.

Posi el ratolí al punt desitjat per veure el nom de l'estació.

Feu clic per veure les observacions i els pronòstics meteorològics.

Per canviar el mapa: feu clic els botons verds amb una creu de color negre per apropar; al botó verd amb un guió per allunyar la imatge; o en les fletxes verdes per a mapes adjacents.


METAR-TAF: